Time;durP1;ratioP1;P1;durP2;ratioP2;P2;SDS_P1;SDS_P2;PMS_P1;PMS_P2;Temp;Humidity;BMP_temperature;BMP_pressure;BME280_temperature;BME280_humidity;BME280_pressure;Samples;Min_cycle;Max_cycle;Signal;HPM_P1;HPM_P2
2022/08/08 00:01:30;;;;;;;2.53;2.33;;;17.50;99.90;;;;;;5240361;28;20039;-64
2022/08/08 00:04:17;;;;;;;2.20;2.00;;;17.60;99.90;;;;;;5233032;28;20044;-63
2022/08/08 00:06:59;;;;;;;2.20;2.00;;;17.60;99.90;;;;;;5212601;28;20071;-63
2022/08/08 00:09:53;;;;;;;4.22;1.92;;;17.50;99.90;;;;;;5222854;28;20031;-63
2022/08/08 00:12:31;;;;;;;2.43;2.23;;;17.50;99.90;;;;;;5241163;28;20047;-63
2022/08/08 00:15:17;;;;;;;2.47;1.70;;;17.50;99.90;;;;;;5240801;28;20017;-63
2022/08/08 00:17:56;;;;;;;2.38;2.13;;;17.50;99.90;;;;;;5223838;28;20029;-64
2022/08/08 00:20:41;;;;;;;2.70;2.30;;;17.40;99.90;;;;;;5222692;28;20025;-63
2022/08/08 00:23:40;;;;;;;2.17;1.98;;;17.40;99.90;;;;;;5240955;28;20025;-63
2022/08/08 00:26:37;;;;;;;2.08;1.98;;;17.40;99.90;;;;;;5240006;28;20036;-63
2022/08/08 00:29:23;;;;;;;2.70;2.47;;;17.50;99.90;;;;;;5240243;28;20047;-64
2022/08/08 00:31:59;;;;;;;2.15;1.90;;;17.50;99.90;;;;;;5241059;28;20035;-62
2022/08/08 00:38:00;;;;;;;2.00;1.90;;;17.60;99.90;;;;;;5240792;28;20035;-64
2022/08/08 00:40:51;;;;;;;2.83;2.63;;;17.70;99.90;;;;;;5223088;28;20024;-65
2022/08/08 00:43:34;;;;;;;2.63;1.95;;;17.70;99.90;;;;;;5222184;28;20329;-63
2022/08/08 00:46:43;;;;;;;2.00;1.90;;;17.60;99.90;;;;;;5222939;28;20033;-63
2022/08/08 00:49:44;;;;;;;2.22;1.88;;;17.60;99.90;;;;;;5239967;28;20033;-65
2022/08/08 00:52:57;;;;;;;3.38;1.73;;;17.50;99.90;;;;;;5239661;28;20100;-63
2022/08/08 00:55:52;;;;;;;3.50;2.65;;;17.40;99.90;;;;;;5196600;28;20230;-64
2022/08/08 00:58:53;;;;;;;1.80;1.70;;;17.40;99.90;;;;;;5180386;28;20060;-64
2022/08/08 01:01:58;;;;;;;2.95;2.28;;;17.40;99.90;;;;;;5235495;28;20047;-64
2022/08/08 01:04:57;;;;;;;2.97;2.67;;;17.30;99.90;;;;;;5196633;28;20121;-65
2022/08/08 01:07:40;;;;;;;3.22;2.13;;;17.30;99.90;;;;;;5238801;28;20260;-63
2022/08/08 01:10:30;;;;;;;2.17;1.88;;;17.30;99.90;;;;;;5222754;28;20039;-64
2022/08/08 01:13:51;;;;;;;2.30;2.10;;;17.30;99.90;;;;;;5222128;28;20033;-63
2022/08/08 01:16:50;;;;;;;1.88;1.77;;;17.40;99.90;;;;;;5239873;28;20035;-63
2022/08/08 01:19:42;;;;;;;3.03;2.17;;;17.50;99.90;;;;;;5239516;28;20020;-63
2022/08/08 01:22:35;;;;;;;3.90;2.47;;;17.60;99.90;;;;;;5239402;28;20063;-63
2022/08/08 01:25:24;;;;;;;2.92;2.20;;;17.60;99.90;;;;;;5239146;28;20039;-65
2022/08/08 01:28:13;;;;;;;2.55;2.33;;;17.60;99.90;;;;;;5239615;28;20029;-62
2022/08/08 01:31:07;;;;;;;2.03;1.92;;;17.60;99.90;;;;;;5221145;28;20032;-63
2022/08/08 01:34:03;;;;;;;2.40;1.80;;;17.60;99.90;;;;;;5222033;28;20321;-63
2022/08/08 01:37:02;;;;;;;2.88;2.17;;;17.60;99.90;;;;;;5205515;28;20096;-62
2022/08/08 01:39:45;;;;;;;2.33;2.08;;;17.60;99.90;;;;;;5239176;28;20031;-65
2022/08/08 01:42:24;;;;;;;2.50;2.30;;;17.60;99.90;;;;;;5221547;28;20282;-64
2022/08/08 01:48:44;;;;;;;2.30;2.08;;;17.70;99.90;;;;;;5239160;28;20021;-63
2022/08/08 01:58:33;;;;;;;3.67;2.47;;;17.60;99.90;;;;;;5238967;28;20013;-64
2022/08/08 02:01:29;;;;;;;2.83;2.50;;;17.50;99.90;;;;;;5239520;28;20202;-63
2022/08/08 02:04:28;;;;;;;2.28;2.08;;;17.50;99.90;;;;;;5204847;28;20197;-63
2022/08/08 02:07:10;;;;;;;2.40;2.20;;;17.40;99.90;;;;;;5238302;28;20029;-63
2022/08/08 02:09:43;;;;;;;3.30;2.35;;;17.50;99.90;;;;;;5221603;28;20036;-63
2022/08/08 02:12:30;;;;;;;2.38;2.17;;;17.40;99.90;;;;;;5238894;28;20240;-63
2022/08/08 02:15:29;;;;;;;3.63;2.30;;;17.50;99.90;;;;;;5205050;28;20043;-63
2022/08/08 02:18:31;;;;;;;5.25;2.72;;;17.40;99.90;;;;;;5239090;28;20025;-65
2022/08/08 02:25:10;;;;;;;2.83;2.28;;;17.50;99.90;;;;;;5181855;28;20250;-63
2022/08/08 02:28:08;;;;;;;1.98;1.88;;;17.40;99.90;;;;;;5193262;28;20316;-63
2022/08/08 02:31:07;;;;;;;3.08;2.78;;;17.40;99.90;;;;;;5196217;28;20353;-63
2022/08/08 02:34:08;;;;;;;2.45;2.22;;;17.30;99.90;;;;;;5179820;28;20034;-64
2022/08/08 02:37:04;;;;;;;2.35;2.15;;;17.20;99.90;;;;;;5179027;28;20034;-63
2022/08/08 02:40:07;;;;;;;2.20;2.03;;;17.20;99.90;;;;;;5195359;28;20041;-63
2022/08/08 02:42:53;;;;;;;1.92;1.73;;;17.20;99.90;;;;;;5195657;28;20034;-63
2022/08/08 02:45:36;;;;;;;2.15;1.95;;;17.20;99.90;;;;;;5179385;28;20056;-63
2022/08/08 02:48:40;;;;;;;1.92;1.83;;;17.20;99.90;;;;;;5196669;28;20030;-64
2022/08/08 02:51:39;;;;;;;4.75;3.05;;;17.20;99.90;;;;;;5179136;28;20025;-64
2022/08/08 02:54:17;;;;;;;2.08;1.90;;;17.30;99.90;;;;;;5194299;28;20030;-64
2022/08/08 02:56:59;;;;;;;3.50;2.15;;;17.40;99.90;;;;;;5178741;28;20034;-63
2022/08/08 03:00:09;;;;;;;2.28;2.13;;;17.40;99.90;;;;;;5213292;28;20043;-63
2022/08/08 03:03:11;;;;;;;1.85;1.75;;;17.40;99.90;;;;;;5238482;28;20027;-62
2022/08/08 03:06:14;;;;;;;2.03;1.88;;;17.50;99.90;;;;;;5194106;28;20075;-63
2022/08/08 03:09:07;;;;;;;2.28;1.85;;;17.50;99.90;;;;;;5162478;28;20350;-64
2022/08/08 03:12:01;;;;;;;3.60;2.35;;;17.60;99.90;;;;;;5181665;28;20029;-62
2022/08/08 03:15:13;;;;;;;5.80;2.40;;;17.50;99.90;;;;;;5198819;28;20029;-63
2022/08/08 03:18:02;;;;;;;2.45;1.90;;;17.40;99.90;;;;;;5196600;28;20033;-65
2022/08/08 03:20:46;;;;;;;1.90;1.77;;;17.30;99.90;;;;;;5199466;28;20048;-63
2022/08/08 03:23:22;;;;;;;3.83;2.17;;;17.30;99.90;;;;;;5198207;28;20029;-63
2022/08/08 03:25:57;;;;;;;3.28;2.00;;;17.20;99.90;;;;;;5199175;28;20037;-63
2022/08/08 03:28:42;;;;;;;2.00;1.75;;;17.10;99.90;;;;;;5198513;28;20025;-63
2022/08/08 03:34:03;;;;;;;2.75;2.33;;;17.10;99.90;;;;;;5198950;28;19909;-64
2022/08/08 03:36:41;;;;;;;5.10;2.10;;;17.00;99.90;;;;;;5198427;28;20030;-64
2022/08/08 03:39:13;;;;;;;2.40;1.95;;;17.00;99.90;;;;;;5198504;28;20033;-63
2022/08/08 03:41:44;;;;;;;2.58;1.90;;;17.00;99.90;;;;;;5198915;28;20038;-62
2022/08/08 03:44:18;;;;;;;4.45;2.40;;;17.00;99.90;;;;;;5203968;28;20032;-63
2022/08/08 03:46:49;;;;;;;2.20;2.00;;;17.00;99.90;;;;;;5223651;28;20025;-63
2022/08/08 03:49:25;;;;;;;2.63;2.20;;;17.00;99.90;;;;;;5223720;28;20055;-63
2022/08/08 03:52:01;;;;;;;2.25;2.05;;;17.10;99.90;;;;;;5223696;28;20302;-63
2022/08/08 03:54:35;;;;;;;2.58;2.22;;;17.10;99.90;;;;;;5241974;28;20023;-62
2022/08/08 03:57:11;;;;;;;2.40;2.20;;;17.10;99.90;;;;;;5240024;28;20045;-62
2022/08/08 03:59:42;;;;;;;2.22;1.98;;;17.10;99.90;;;;;;5223703;28;20035;-63
2022/08/08 04:02:18;;;;;;;2.70;2.10;;;17.20;99.90;;;;;;5240892;28;20184;-62
2022/08/08 04:04:54;;;;;;;2.22;2.00;;;17.20;99.90;;;;;;5212820;28;20045;-63
2022/08/08 04:07:25;;;;;;;2.30;2.10;;;17.20;99.90;;;;;;5223743;28;20043;-62
2022/08/08 04:09:56;;;;;;;2.40;1.77;;;17.20;99.90;;;;;;5223458;28;20036;-62
2022/08/08 04:12:27;;;;;;;3.60;2.25;;;17.20;99.90;;;;;;5222415;28;20059;-63
2022/08/08 04:15:02;;;;;;;2.17;2.05;;;17.20;99.90;;;;;;5239946;28;20039;-63
2022/08/08 04:17:33;;;;;;;1.95;1.75;;;17.20;99.90;;;;;;5240440;28;20038;-63
2022/08/08 04:20:05;;;;;;;2.10;1.90;;;17.20;99.90;;;;;;5223374;28;20033;-62
2022/08/08 04:22:40;;;;;;;5.50;1.80;;;17.20;99.90;;;;;;5221885;28;20029;-62
2022/08/08 04:25:11;;;;;;;6.45;3.63;;;17.20;99.90;;;;;;5223431;28;20029;-62
2022/08/08 04:27:45;;;;;;;2.13;1.92;;;17.20;99.90;;;;;;5241401;28;20030;-63
2022/08/08 04:30:19;;;;;;;2.40;2.20;;;17.20;99.90;;;;;;5239360;28;20033;-63
2022/08/08 04:32:50;;;;;;;3.00;2.70;;;17.30;99.90;;;;;;5221730;28;20025;-62
2022/08/08 04:35:21;;;;;;;2.13;1.90;;;17.40;99.90;;;;;;5239882;28;20027;-61
2022/08/08 04:38:00;;;;;;;2.38;2.17;;;17.40;99.90;;;;;;5240375;28;20032;-62
2022/08/08 04:40:32;;;;;;;1.98;1.88;;;17.40;99.90;;;;;;5222417;28;20036;-62
2022/08/08 04:43:04;;;;;;;2.20;2.00;;;17.50;99.90;;;;;;5222145;28;20041;-63
2022/08/08 04:45:36;;;;;;;2.53;2.33;;;17.60;99.90;;;;;;5241026;28;20032;-63
2022/08/08 04:48:07;;;;;;;1.80;1.70;;;17.60;99.90;;;;;;5222431;28;20035;-64
2022/08/08 04:50:38;;;;;;;1.88;1.77;;;17.70;99.90;;;;;;5240118;28;20021;-64
2022/08/08 04:53:09;;;;;;;1.40;1.30;;;17.70;99.90;;;;;;5221709;28;20024;-62
2022/08/08 04:55:41;;;;;;;2.08;1.88;;;17.70;99.90;;;;;;5239802;28;20017;-62
2022/08/08 04:58:13;;;;;;;2.15;1.95;;;17.80;99.90;;;;;;5222446;28;20033;-62
2022/08/08 05:00:45;;;;;;;2.83;1.98;;;17.80;99.90;;;;;;5240113;28;20029;-62
2022/08/08 05:03:16;;;;;;;2.00;1.90;;;17.70;99.90;;;;;;5240182;28;20035;-62
2022/08/08 05:05:50;;;;;;;3.67;2.00;;;17.80;99.90;;;;;;5229037;28;20048;-62
2022/08/08 05:08:25;;;;;;;2.17;1.70;;;17.80;99.90;;;;;;5239689;28;20291;-62
2022/08/08 05:10:56;;;;;;;2.20;1.55;;;17.80;99.90;;;;;;5240021;28;20024;-61
2022/08/08 05:13:30;;;;;;;3.17;1.83;;;17.80;99.90;;;;;;5221598;28;20045;-63
2022/08/08 05:16:02;;;;;;;;;;;17.80;99.90;;;;;;5239180;28;20035;-62
2022/08/08 05:18:35;;;;;;;1.80;1.70;;;17.80;99.90;;;;;;5205818;28;20078;-63
2022/08/08 05:21:09;;;;;;;2.60;2.17;;;17.70;99.90;;;;;;5222082;28;20032;-62
2022/08/08 05:23:40;;;;;;;1.90;1.55;;;17.80;99.90;;;;;;5222150;28;20191;-61
2022/08/08 05:26:14;;;;;;;2.40;1.83;;;17.80;99.90;;;;;;5221549;28;20028;-62
2022/08/08 05:28:45;;;;;;;1.77;1.65;;;17.90;99.90;;;;;;5221753;28;20039;-62
2022/08/08 05:31:17;;;;;;;2.80;1.65;;;18.00;99.90;;;;;;5221305;28;20032;-61
2022/08/08 05:33:53;;;;;;;1.88;1.77;;;18.00;99.90;;;;;;5205279;28;20033;-63
2022/08/08 05:36:26;;;;;;;2.85;1.77;;;18.00;99.90;;;;;;5221589;28;20017;-61
2022/08/08 05:39:00;;;;;;;2.75;1.88;;;18.00;99.90;;;;;;5239232;28;20031;-61
2022/08/08 05:41:40;;;;;;;1.40;1.30;;;18.00;99.90;;;;;;5239064;28;20188;-61
2022/08/08 05:44:20;;;;;;;1.83;1.70;;;18.10;99.90;;;;;;5239180;28;20032;-61
2022/08/08 05:46:55;;;;;;;1.67;1.58;;;18.10;99.90;;;;;;5239207;28;20031;-61
2022/08/08 05:49:26;;;;;;;;;;;18.10;99.90;;;;;;5222271;28;20041;-61
2022/08/08 05:51:57;;;;;;;2.50;1.42;;;18.20;99.90;;;;;;5222082;28;19901;-61
2022/08/08 05:54:31;;;;;;;2.22;1.83;;;18.30;99.90;;;;;;5239006;28;20205;-61
2022/08/08 05:57:11;;;;;;;1.67;1.50;;;18.40;99.90;;;;;;5204566;28;20035;-62
2022/08/08 05:59:51;;;;;;;1.27;1.17;;;18.50;99.90;;;;;;5221475;28;20314;-61
2022/08/08 06:05:23;;;;;;;3.58;2.17;;;18.60;99.90;;;;;;5227875;28;20047;-61
2022/08/08 06:08:00;;;;;;;3.08;1.40;;;18.50;99.90;;;;;;5221400;28;20039;-64
2022/08/08 06:10:37;;;;;;;2.42;1.50;;;18.50;99.90;;;;;;5221556;28;20025;-63
2022/08/08 06:13:09;;;;;;;3.00;1.73;;;18.80;99.90;;;;;;5203959;28;20037;-63
2022/08/08 06:15:45;;;;;;;4.05;1.25;;;18.70;99.90;;;;;;5237793;28;20029;-61
2022/08/08 06:18:17;;;;;;;1.45;1.35;;;18.80;99.90;;;;;;5222700;28;20095;-61
2022/08/08 06:20:54;;;;;;;1.38;1.20;;;19.00;99.90;;;;;;5240378;28;20021;-62
2022/08/08 06:23:28;;;;;;;1.83;1.40;;;19.20;99.90;;;;;;5222049;28;20035;-61
2022/08/08 06:26:09;;;;;;;1.52;1.42;;;19.30;99.90;;;;;;5221223;28;20049;-61
2022/08/08 06:29:02;;;;;;;1.73;1.63;;;19.10;99.90;;;;;;5222561;28;20025;-62
2022/08/08 06:31:36;;;;;;;2.45;1.50;;;19.00;99.90;;;;;;5239319;28;20043;-62
2022/08/08 06:34:17;;;;;;;1.70;1.60;;;19.00;99.90;;;;;;5204455;28;20037;-61
2022/08/08 06:36:54;;;;;;;1.98;1.88;;;18.80;99.90;;;;;;5239721;28;20024;-62
2022/08/08 06:39:28;;;;;;;1.40;1.30;;;18.80;99.90;;;;;;5221339;28;20047;-61
2022/08/08 06:42:03;;;;;;;1.42;1.33;;;18.90;99.90;;;;;;5237866;28;20324;-61
2022/08/08 06:44:39;;;;;;;1.30;1.20;;;18.90;99.90;;;;;;5220578;28;20047;-61
2022/08/08 06:47:10;;;;;;;2.92;1.60;;;19.00;99.90;;;;;;5206639;28;20036;-61
2022/08/08 06:49:42;;;;;;;2.42;1.80;;;19.10;99.90;;;;;;5241729;28;20303;-61
2022/08/08 06:52:14;;;;;;;1.40;1.20;;;19.10;99.90;;;;;;5243038;28;20051;-61
2022/08/08 06:54:48;;;;;;;1.83;1.30;;;19.00;99.90;;;;;;5225341;28;20039;-61
2022/08/08 06:57:23;;;;;;;1.48;1.38;;;19.00;99.90;;;;;;5241636;28;20033;-61
2022/08/08 06:59:57;;;;;;;1.45;1.35;;;19.10;99.90;;;;;;5225063;28;20029;-61
2022/08/08 07:02:35;;;;;;;1.45;1.35;;;19.10;99.90;;;;;;5242621;28;20029;-61
2022/08/08 07:05:14;;;;;;;1.52;1.42;;;19.30;99.90;;;;;;5213953;28;20350;-61
2022/08/08 07:07:55;;;;;;;2.05;1.38;;;19.50;99.90;;;;;;5203231;28;20021;-62
2022/08/08 07:10:34;;;;;;;1.17;1.10;;;19.60;99.90;;;;;;5202265;28;20029;-62
2022/08/08 07:13:07;;;;;;;1.10;1.08;;;19.50;99.90;;;;;;5202089;28;20238;-61
2022/08/08 07:15:50;;;;;;;1.60;1.20;;;19.70;99.90;;;;;;5184846;28;20033;-62
2022/08/08 07:18:54;;;;;;;1.15;1.15;;;19.70;99.90;;;;;;5219324;28;20028;-61
2022/08/08 07:21:35;;;;;;;2.22;1.50;;;19.50;99.90;;;;;;5219766;28;20044;-62
2022/08/08 07:24:11;;;;;;;1.20;1.10;;;19.50;99.90;;;;;;5213317;28;20021;-61
2022/08/08 07:26:51;;;;;;;1.92;1.20;;;19.20;99.90;;;;;;5203611;28;20033;-61
2022/08/08 07:29:23;;;;;;;1.50;1.40;;;18.70;99.90;;;;;;5219976;28;20018;-61
2022/08/08 07:31:59;;;;;;;1.40;1.30;;;18.60;99.90;;;;;;5221116;28;20026;-61
2022/08/08 07:34:33;;;;;;;1.55;1.45;;;18.30;99.90;;;;;;5218588;28;20025;-61
2022/08/08 07:37:07;;;;;;;1.60;1.50;;;18.10;99.90;;;;;;5201052;28;20029;-61
2022/08/08 07:39:42;;;;;;;1.95;1.70;;;18.00;99.90;;;;;;5217384;28;20044;-61
2022/08/08 07:42:16;;;;;;;3.47;1.67;;;17.80;99.90;;;;;;5218599;28;20021;-62
2022/08/08 07:44:47;;;;;;;3.03;1.70;;;17.70;99.90;;;;;;5202414;28;20035;-61
2022/08/08 07:47:21;;;;;;;4.13;1.77;;;17.80;99.90;;;;;;5218750;28;20032;-61
2022/08/08 07:49:52;;;;;;;3.05;2.00;;;18.00;99.90;;;;;;5216116;28;20029;-61
2022/08/08 07:52:24;;;;;;;2.88;1.50;;;18.10;99.90;;;;;;5218838;28;20025;-61
2022/08/08 07:55:04;;;;;;;2.50;1.60;;;18.20;99.90;;;;;;5216571;28;20033;-61
2022/08/08 07:57:35;;;;;;;1.52;1.42;;;18.30;99.90;;;;;;5219113;28;20199;-62
2022/08/08 08:00:13;;;;;;;1.38;1.27;;;18.40;99.90;;;;;;5200563;28;20039;-61
2022/08/08 08:03:11;;;;;;;1.45;1.35;;;18.40;99.90;;;;;;5219253;28;20026;-61
2022/08/08 08:05:50;;;;;;;1.60;1.50;;;18.30;99.90;;;;;;5191839;28;20085;-61
2022/08/08 08:08:29;;;;;;;1.77;1.55;;;18.10;99.90;;;;;;5216310;28;20032;-62
2022/08/08 08:11:04;;;;;;;2.72;1.80;;;17.90;99.90;;;;;;5216038;28;20025;-63
2022/08/08 08:13:52;;;;;;;2.17;1.77;;;17.60;99.90;;;;;;5217900;28;20048;-66
2022/08/08 08:16:29;;;;;;;1.73;1.63;;;17.40;99.90;;;;;;5198681;28;20025;-67
2022/08/08 08:19:04;;;;;;;1.92;1.80;;;17.10;99.90;;;;;;5217196;28;20040;-69
2022/08/08 08:21:46;;;;;;;4.05;1.77;;;16.90;99.90;;;;;;5224913;28;20031;-70
2022/08/08 08:24:18;;;;;;;2.53;1.95;;;16.70;99.90;;;;;;5202507;28;20037;-73
2022/08/08 08:26:49;;;;;;;2.83;2.13;;;16.60;99.90;;;;;;5235390;28;20024;-72
2022/08/08 08:29:21;;;;;;;2.25;2.00;;;16.50;99.90;;;;;;5235002;28;20025;-64
2022/08/08 08:31:55;;;;;;;2.58;2.15;;;16.30;99.90;;;;;;5236285;28;20021;-70
2022/08/08 08:34:26;;;;;;;2.63;2.05;;;16.30;99.90;;;;;;5236112;28;20029;-69
2022/08/08 08:37:01;;;;;;;3.45;2.20;;;16.20;99.90;;;;;;5234643;28;20202;-65
2022/08/08 08:39:33;;;;;;;2.40;2.03;;;16.00;99.90;;;;;;5253514;28;20051;-65
2022/08/08 08:42:08;;;;;;;1.80;1.70;;;15.90;99.90;;;;;;5220160;28;20043;-66
2022/08/08 08:44:43;;;;;;;3.53;2.42;;;15.80;99.90;;;;;;5257684;28;20201;-65
2022/08/08 08:47:19;;;;;;;3.45;2.55;;;15.70;99.90;;;;;;5223671;28;20024;-65
2022/08/08 08:49:50;;;;;;;4.78;2.20;;;15.50;99.90;;;;;;5225339;28;20032;-68
2022/08/08 08:52:27;;;;;;;4.75;2.95;;;15.40;99.90;;;;;;5260437;28;20024;-64
2022/08/08 08:55:03;;;;;;;2.67;2.30;;;15.30;99.90;;;;;;5250220;28;20033;-66
2022/08/08 08:57:34;;;;;;;4.05;2.75;;;15.20;99.90;;;;;;5258190;28;20035;-66
2022/08/08 09:00:07;;;;;;;3.60;2.25;;;15.10;99.90;;;;;;5223654;28;20036;-66
2022/08/08 09:02:40;;;;;;;3.22;2.92;;;15.10;99.90;;;;;;5241335;28;20032;-66
2022/08/08 09:05:17;;;;;;;4.85;2.85;;;15.10;99.90;;;;;;5218285;28;20403;-65
2022/08/08 09:07:52;;;;;;;3.65;2.53;;;15.10;99.90;;;;;;5223235;28;20035;-70
2022/08/08 09:10:27;;;;;;;4.13;2.88;;;15.10;99.90;;;;;;5224020;28;20032;-70
2022/08/08 09:13:01;;;;;;;2.65;2.40;;;15.10;99.90;;;;;;5239841;28;20040;-71
2022/08/08 09:15:32;;;;;;;9.57;3.05;;;15.10;99.90;;;;;;5254936;28;20103;-71
2022/08/08 09:18:04;;;;;;;3.15;2.80;;;15.20;99.90;;;;;;5257712;28;20038;-70
2022/08/08 09:20:36;;;;;;;2.63;2.42;;;15.30;99.90;;;;;;5245854;28;20021;-73
2022/08/08 09:23:11;;;;;;;3.55;2.58;;;15.40;99.90;;;;;;5237168;28;20038;-70
2022/08/08 09:25:45;;;;;;;;;;;15.50;99.90;;;;;;5256842;28;20028;-68
2022/08/08 09:28:20;;;;;;;3.50;3.00;;;15.60;99.90;;;;;;5236345;28;19906;-67
2022/08/08 09:31:01;;;;;;;7.57;3.20;;;15.80;99.90;;;;;;5218025;28;20046;-66
2022/08/08 09:33:41;;;;;;;2.72;2.53;;;15.90;99.90;;;;;;5255426;28;20024;-69
2022/08/08 09:36:21;;;;;;;2.78;2.47;;;16.10;99.90;;;;;;5221193;28;20035;-67
2022/08/08 09:39:01;;;;;;;4.90;2.47;;;16.20;99.90;;;;;;5254225;28;20034;-68
2022/08/08 09:41:42;;;;;;;4.38;2.53;;;16.30;99.90;;;;;;5246375;28;20306;-69
2022/08/08 09:44:23;;;;;;;2.63;2.30;;;16.40;99.90;;;;;;5215901;28;20320;-68
2022/08/08 09:46:58;;;;;;;2.40;2.20;;;16.50;99.90;;;;;;5217326;28;20043;-67
2022/08/08 09:49:31;;;;;;;2.83;2.10;;;16.60;99.90;;;;;;5217116;28;20029;-67
2022/08/08 09:52:04;;;;;;;2.78;2.55;;;16.70;99.90;;;;;;5234491;28;20016;-67
2022/08/08 09:54:43;;;;;;;2.53;2.25;;;16.70;99.90;;;;;;5217380;28;20033;-65
2022/08/08 09:57:24;;;;;;;2.50;2.10;;;16.60;99.90;;;;;;5238143;28;20032;-66
2022/08/08 10:00:02;;;;;;;4.40;2.55;;;16.60;99.90;;;;;;5238043;28;20047;-69
2022/08/08 10:02:41;;;;;;;2.97;2.67;;;16.50;99.90;;;;;;5219949;28;20032;-68
2022/08/08 10:05:20;;;;;;;3.20;2.90;;;16.30;99.90;;;;;;5193106;28;20059;-67
2022/08/08 10:07:51;;;;;;;4.75;2.70;;;16.20;99.90;;;;;;5236171;28;20017;-70
2022/08/08 10:10:29;;;;;;;2.88;2.58;;;16.00;99.90;;;;;;5237217;28;20021;-68
2022/08/08 10:13:18;;;;;;;2.83;2.63;;;16.00;99.90;;;;;;5230465;28;20035;-69
2022/08/08 10:15:52;;;;;;;3.63;2.95;;;16.00;99.90;;;;;;5183060;28;20029;-63
2022/08/08 10:18:35;;;;;;;3.50;3.08;;;15.90;99.90;;;;;;5194772;28;20047;-64
2022/08/08 10:21:09;;;;;;;4.57;3.22;;;15.90;99.90;;;;;;5190423;28;20219;-64
2022/08/08 10:23:49;;;;;;;3.78;3.35;;;16.00;99.90;;;;;;5219264;28;20348;-66
2022/08/08 10:26:38;;;;;;;3.70;3.35;;;16.00;99.90;;;;;;5219195;28;20027;-65
2022/08/08 10:29:11;;;;;;;3.78;3.00;;;16.00;99.90;;;;;;5201728;28;20029;-64
2022/08/08 10:34:44;;;;;;;3.55;3.08;;;16.00;99.90;;;;;;5202353;28;20034;-66
2022/08/08 10:37:26;;;;;;;4.70;2.80;;;16.00;99.90;;;;;;5197749;28;20406;-64
2022/08/08 10:39:59;;;;;;;2.83;2.63;;;16.00;99.90;;;;;;5222297;28;20016;-65
2022/08/08 10:42:41;;;;;;;2.92;2.53;;;15.90;99.90;;;;;;5202817;28;20047;-65
2022/08/08 10:45:13;;;;;;;2.47;2.28;;;15.80;99.90;;;;;;5200609;28;20024;-64
2022/08/08 10:47:57;;;;;;;4.82;2.75;;;15.90;99.90;;;;;;5220917;28;20151;-70
2022/08/08 10:50:35;;;;;;;4.00;2.90;;;16.00;99.90;;;;;;5200868;28;20032;-66
2022/08/08 10:53:15;;;;;;;2.83;2.40;;;16.00;99.90;;;;;;5197613;28;20033;-64
2022/08/08 10:55:58;;;;;;;3.80;2.38;;;16.10;99.90;;;;;;5179893;28;20267;-65
2022/08/08 10:58:30;;;;;;;2.87;2.60;;;16.00;99.90;;;;;;5180242;28;20025;-65
2022/08/08 11:01:10;;;;;;;3.88;2.50;;;16.10;99.90;;;;;;5198166;28;20025;-64
2022/08/08 11:03:46;;;;;;;3.25;2.28;;;16.00;99.90;;;;;;5192343;28;20035;-65
2022/08/08 11:06:18;;;;;;;3.65;2.60;;;15.90;99.90;;;;;;5212838;28;20045;-66
2022/08/08 11:09:06;;;;;;;3.92;3.00;;;15.80;99.90;;;;;;5222059;28;20340;-69
2022/08/08 11:11:38;;;;;;;5.90;3.47;;;15.80;99.90;;;;;;5221629;28;20038;-65
2022/08/08 11:14:13;;;;;;;3.05;2.75;;;15.90;99.90;;;;;;5202613;28;20233;-64
2022/08/08 11:16:45;;;;;;;3.28;2.97;;;15.90;99.90;;;;;;5223252;28;20229;-63
2022/08/08 11:19:17;;;;;;;4.75;3.33;;;15.90;99.90;;;;;;5198306;28;20067;-63
2022/08/08 11:21:54;;;;;;;3.13;2.50;;;15.90;99.90;;;;;;5182077;28;20207;-64
2022/08/08 11:24:28;;;;;;;3.17;2.50;;;16.00;99.90;;;;;;5185804;28;20098;-64
2022/08/08 11:27:04;;;;;;;5.63;2.63;;;16.00;99.90;;;;;;5211575;28;20020;-63
2022/08/08 11:29:41;;;;;;;3.38;2.60;;;16.00;99.90;;;;;;5214813;28;20233;-68
2022/08/08 11:32:18;;;;;;;5.13;2.50;;;16.00;99.90;;;;;;5201202;28;20017;-63
2022/08/08 11:34:54;;;;;;;3.05;2.42;;;16.00;99.90;;;;;;5216583;28;20029;-64
2022/08/08 11:37:29;;;;;;;2.70;2.50;;;16.10;99.90;;;;;;5215964;28;20315;-64
2022/08/08 11:40:02;;;;;;;2.45;2.25;;;16.10;99.90;;;;;;5214964;28;20035;-64
2022/08/08 11:42:34;;;;;;;2.95;2.53;;;16.30;99.90;;;;;;5218016;28;20035;-63
2022/08/08 11:45:06;;;;;;;2.35;2.20;;;16.30;99.90;;;;;;5210962;28;20067;-66
2022/08/08 11:47:46;;;;;;;2.28;2.08;;;16.30;99.90;;;;;;5197268;28;20029;-64
2022/08/08 11:50:18;;;;;;;3.63;2.28;;;16.40;99.90;;;;;;5216668;28;20043;-67
2022/08/08 11:52:54;;;;;;;2.58;2.28;;;16.30;99.90;;;;;;5198531;28;20029;-65
2022/08/08 11:55:28;;;;;;;3.17;2.85;;;16.40;99.90;;;;;;5218616;28;20025;-63
2022/08/08 11:58:07;;;;;;;2.95;2.75;;;16.30;99.90;;;;;;5219474;28;20234;-64
2022/08/08 12:00:57;;;;;;;2.92;2.63;;;16.20;99.90;;;;;;5193961;28;20029;-63
2022/08/08 12:03:35;;;;;;;4.80;2.55;;;16.30;99.90;;;;;;5215940;28;20241;-65
2022/08/08 12:06:16;;;;;;;2.33;2.13;;;16.40;99.90;;;;;;5191490;28;20040;-65
2022/08/08 12:08:48;;;;;;;2.75;2.47;;;16.30;99.90;;;;;;5208287;28;20025;-63
2022/08/08 12:11:19;;;;;;;2.47;2.28;;;16.30;99.90;;;;;;5199547;28;20027;-66
2022/08/08 12:13:50;;;;;;;3.05;2.75;;;16.30;99.90;;;;;;5178488;28;1257332;-67
2022/08/08 12:16:24;;;;;;;2.40;2.20;;;16.30;99.90;;;;;;5216580;28;20021;-63
2022/08/08 12:18:56;;;;;;;3.20;2.90;;;16.50;99.90;;;;;;5192026;28;20036;-62
2022/08/08 12:21:33;;;;;;;2.60;2.40;;;16.50;99.90;;;;;;5194633;28;20315;-64
2022/08/08 12:24:18;;;;;;;3.42;2.33;;;16.60;99.90;;;;;;5193997;28;20017;-64
2022/08/08 12:26:52;;;;;;;2.92;2.58;;;16.60;99.90;;;;;;5231381;28;20022;-63
2022/08/08 12:29:32;;;;;;;3.72;2.53;;;16.50;99.90;;;;;;5203061;28;20298;-63
2022/08/08 12:32:06;;;;;;;2.63;2.42;;;16.30;99.90;;;;;;5237576;28;20320;-64
2022/08/08 12:34:42;;;;;;;8.40;2.85;;;16.10;99.90;;;;;;5232691;28;20441;-63
2022/08/08 12:37:28;;;;;;;7.72;3.30;;;16.30;99.90;;;;;;5181161;28;20315;-65
2022/08/08 12:40:18;;;;;;;7.70;2.70;;;16.40;99.90;;;;;;5199605;28;20033;-66
2022/08/08 12:42:49;;;;;;;2.88;2.60;;;16.40;99.90;;;;;;5177891;28;20037;-65
2022/08/08 12:45:44;;;;;;;4.20;2.70;;;16.50;99.90;;;;;;5214715;28;20350;-67
2022/08/08 12:48:20;;;;;;;4.72;2.63;;;16.60;99.90;;;;;;5195805;28;20213;-63
2022/08/08 12:50:56;;;;;;;2.47;2.28;;;16.30;99.90;;;;;;5186063;28;20031;-62
2022/08/08 12:53:33;;;;;;;2.60;2.40;;;16.20;99.90;;;;;;5177627;28;20025;-66
2022/08/08 12:56:06;;;;;;;2.75;2.47;;;16.10;99.90;;;;;;5195801;28;20043;-63
2022/08/08 12:58:54;;;;;;;2.95;2.72;;;16.00;99.90;;;;;;5184290;28;20017;-67
2022/08/08 13:01:36;;;;;;;2.75;2.45;;;15.90;99.90;;;;;;5196839;28;20043;-68
2022/08/08 13:04:15;;;;;;;4.72;2.67;;;15.80;99.90;;;;;;5192709;28;20025;-64
2022/08/08 13:07:00;;;;;;;2.25;2.05;;;15.80;99.90;;;;;;5171941;28;20237;-64
2022/08/08 13:09:33;;;;;;;3.80;3.00;;;15.70;99.90;;;;;;5214185;28;20024;-62
2022/08/08 13:12:33;;;;;;;5.05;3.03;;;15.70;99.90;;;;;;5202314;28;20032;-62
2022/08/08 13:15:09;;;;;;;4.15;2.63;;;15.80;99.90;;;;;;5213769;28;20344;-67
2022/08/08 13:17:43;;;;;;;4.55;2.53;;;15.80;99.90;;;;;;5197911;28;20070;-66
2022/08/08 13:20:18;;;;;;;3.08;2.53;;;15.80;99.90;;;;;;5215644;28;20379;-63
2022/08/08 13:22:50;;;;;;;2.33;2.13;;;15.70;99.90;;;;;;5213822;28;20035;-68
2022/08/08 13:25:21;;;;;;;1.83;1.73;;;15.60;99.90;;;;;;5218736;28;20020;-65
2022/08/08 13:27:55;;;;;;;2.30;1.85;;;15.60;99.90;;;;;;5236828;28;20020;-63
2022/08/08 13:30:29;;;;;;;2.00;1.80;;;15.50;99.90;;;;;;5182516;28;20027;-64
2022/08/08 13:33:00;;;;;;;2.40;2.20;;;15.50;99.90;;;;;;5235223;28;20032;-68
2022/08/08 13:35:32;;;;;;;2.97;2.20;;;15.50;99.90;;;;;;5216335;28;20191;-66
2022/08/08 13:38:04;;;;;;;2.17;1.98;;;15.40;99.90;;;;;;5200997;28;20296;-63
2022/08/08 13:40:35;;;;;;;2.70;1.75;;;15.40;99.90;;;;;;5202258;28;20031;-62
2022/08/08 13:43:12;;;;;;;2.20;2.00;;;15.40;99.90;;;;;;5188639;28;20494;-63
2022/08/08 13:45:43;;;;;;;2.53;2.33;;;15.40;99.90;;;;;;5159818;28;20044;-65
2022/08/08 13:48:18;;;;;;;2.30;2.10;;;15.30;99.90;;;;;;5193010;28;20016;-65
2022/08/08 13:50:52;;;;;;;;;;;15.40;99.90;;;;;;5196166;28;20021;-64
2022/08/08 13:53:28;;;;;;;2.47;2.20;;;15.40;99.90;;;;;;5178534;28;21189;-64
2022/08/08 13:56:04;;;;;;;2.10;1.90;;;15.30;99.90;;;;;;5163098;28;20047;-62
2022/08/08 13:58:35;;;;;;;2.33;2.13;;;15.30;99.90;;;;;;5181936;28;20039;-63
2022/08/08 14:01:14;;;;;;;5.32;2.20;;;15.30;99.90;;;;;;5182317;28;20279;-64
2022/08/08 14:03:53;;;;;;;2.63;1.83;;;15.30;99.90;;;;;;5216112;28;20035;-64
2022/08/08 14:06:26;;;;;;;2.28;2.13;;;15.30;99.90;;;;;;5203895;28;20048;-65
2022/08/08 14:08:58;;;;;;;2.85;1.77;;;15.30;99.90;;;;;;5186141;28;20040;-68
2022/08/08 14:11:32;;;;;;;2.47;2.17;;;15.30;99.90;;;;;;5192613;28;20048;-65
2022/08/08 14:14:06;;;;;;;2.33;2.13;;;15.30;99.90;;;;;;5212545;28;20182;-67
2022/08/08 14:16:50;;;;;;;2.90;2.28;;;15.30;99.90;;;;;;5197924;28;20399;-65